sensor_id;sensor_type;location;lat;lon;timestamp;temperature;humidity
16479;DHT22;8350;52.316;10.530;2023-02-18T00:02:15;7.10;1.00
16479;DHT22;8350;52.316;10.530;2023-02-18T00:04:43;7.10;1.00
16479;DHT22;8350;52.316;10.530;2023-02-18T00:07:10;7.00;1.00
16479;DHT22;8350;52.316;10.530;2023-02-18T00:09:37;7.10;1.00
16479;DHT22;8350;52.316;10.530;2023-02-18T00:12:05;7.10;1.00
16479;DHT22;8350;52.316;10.530;2023-02-18T00:14:32;7.00;1.00
16479;DHT22;8350;52.316;10.530;2023-02-18T00:16:58;7.00;1.00
16479;DHT22;8350;52.316;10.530;2023-02-18T00:19:25;7.00;1.00
16479;DHT22;8350;52.316;10.530;2023-02-18T00:21:56;7.10;1.00
16479;DHT22;8350;52.316;10.530;2023-02-18T00:24:23;7.00;1.00
16479;DHT22;8350;52.316;10.530;2023-02-18T00:26:51;7.10;1.00
16479;DHT22;8350;52.316;10.530;2023-02-18T00:29:18;7.10;1.00
16479;DHT22;8350;52.316;10.530;2023-02-18T00:31:45;7.10;1.00
16479;DHT22;8350;52.316;10.530;2023-02-18T00:34:13;7.00;1.00
16479;DHT22;8350;52.316;10.530;2023-02-18T00:36:40;7.10;1.00
16479;DHT22;8350;52.316;10.530;2023-02-18T00:39:10;7.00;1.00
16479;DHT22;8350;52.316;10.530;2023-02-18T00:41:37;7.10;1.00
16479;DHT22;8350;52.316;10.530;2023-02-18T00:44:04;7.10;1.00
16479;DHT22;8350;52.316;10.530;2023-02-18T00:46:32;7.00;1.00
16479;DHT22;8350;52.316;10.530;2023-02-18T00:48:59;7.00;1.00
16479;DHT22;8350;52.316;10.530;2023-02-18T00:51:26;7.00;1.00
16479;DHT22;8350;52.316;10.530;2023-02-18T00:53:53;7.00;1.00
16479;DHT22;8350;52.316;10.530;2023-02-18T00:56:21;7.00;1.00
16479;DHT22;8350;52.316;10.530;2023-02-18T00:58:49;7.00;1.00
16479;DHT22;8350;52.316;10.530;2023-02-18T01:01:16;6.90;1.00
16479;DHT22;8350;52.316;10.530;2023-02-18T01:03:44;6.80;1.00
16479;DHT22;8350;52.316;10.530;2023-02-18T01:06:14;6.90;1.00
16479;DHT22;8350;52.316;10.530;2023-02-18T01:08:41;6.90;1.00
16479;DHT22;8350;52.316;10.530;2023-02-18T01:11:09;6.90;1.00
16479;DHT22;8350;52.316;10.530;2023-02-18T01:13:39;6.90;1.00
16479;DHT22;8350;52.316;10.530;2023-02-18T01:16:06;6.80;1.00
16479;DHT22;8350;52.316;10.530;2023-02-18T01:18:33;6.80;1.00
16479;DHT22;8350;52.316;10.530;2023-02-18T01:21:00;6.80;1.00
16479;DHT22;8350;52.316;10.530;2023-02-18T01:23:27;6.80;1.00
16479;DHT22;8350;52.316;10.530;2023-02-18T01:25:55;6.90;1.00
16479;DHT22;8350;52.316;10.530;2023-02-18T01:28:23;6.80;1.00
16479;DHT22;8350;52.316;10.530;2023-02-18T01:30:52;6.90;1.00
16479;DHT22;8350;52.316;10.530;2023-02-18T01:33:19;6.90;1.00
16479;DHT22;8350;52.316;10.530;2023-02-18T01:35:46;6.90;1.00
16479;DHT22;8350;52.316;10.530;2023-02-18T01:38:13;6.90;1.00
16479;DHT22;8350;52.316;10.530;2023-02-18T01:40:46;7.00;1.00
16479;DHT22;8350;52.316;10.530;2023-02-18T01:43:14;7.00;1.00
16479;DHT22;8350;52.316;10.530;2023-02-18T01:46:01;7.10;1.00
16479;DHT22;8350;52.316;10.530;2023-02-18T01:48:31;7.10;1.00
16479;DHT22;8350;52.316;10.530;2023-02-18T01:51:03;7.10;1.00
16479;DHT22;8350;52.316;10.530;2023-02-18T01:53:35;7.20;1.00
16479;DHT22;8350;52.316;10.530;2023-02-18T01:56:05;7.20;1.00
16479;DHT22;8350;52.316;10.530;2023-02-18T01:58:32;7.20;1.00
16479;DHT22;8350;52.316;10.530;2023-02-18T02:01:01;7.20;1.00
16479;DHT22;8350;52.316;10.530;2023-02-18T02:03:28;7.30;1.00
16479;DHT22;8350;52.316;10.530;2023-02-18T02:05:54;7.30;1.00
16479;DHT22;8350;52.316;10.530;2023-02-18T02:08:24;7.30;1.00
16479;DHT22;8350;52.316;10.530;2023-02-18T02:11:07;7.30;1.00
16479;DHT22;8350;52.316;10.530;2023-02-18T02:13:51;7.30;1.00
16479;DHT22;8350;52.316;10.530;2023-02-18T02:16:29;7.30;1.00
16479;DHT22;8350;52.316;10.530;2023-02-18T02:19:24;7.30;1.00
16479;DHT22;8350;52.316;10.530;2023-02-18T02:22:16;7.40;1.00
16479;DHT22;8350;52.316;10.530;2023-02-18T02:28:05;7.30;1.00
16479;DHT22;8350;52.316;10.530;2023-02-18T02:30:44;7.30;1.00
16479;DHT22;8350;52.316;10.530;2023-02-18T02:33:56;7.30;1.00
16479;DHT22;8350;52.316;10.530;2023-02-18T02:36:31;7.40;1.00
16479;DHT22;8350;52.316;10.530;2023-02-18T02:39:08;7.40;1.00
16479;DHT22;8350;52.316;10.530;2023-02-18T02:41:45;7.40;1.00
16479;DHT22;8350;52.316;10.530;2023-02-18T02:44:19;7.40;1.00
16479;DHT22;8350;52.316;10.530;2023-02-18T02:46:50;7.40;1.00
16479;DHT22;8350;52.316;10.530;2023-02-18T02:49:27;7.40;1.00
16479;DHT22;8350;52.316;10.530;2023-02-18T02:52:00;7.50;1.00
16479;DHT22;8350;52.316;10.530;2023-02-18T02:54:29;7.50;1.00
16479;DHT22;8350;52.316;10.530;2023-02-18T02:57:08;7.50;1.00
16479;DHT22;8350;52.316;10.530;2023-02-18T02:59:38;7.50;1.00
16479;DHT22;8350;52.316;10.530;2023-02-18T03:02:20;7.50;1.00
16479;DHT22;8350;52.316;10.530;2023-02-18T03:05:07;7.50;1.00
16479;DHT22;8350;52.316;10.530;2023-02-18T03:07:54;7.40;1.00
16479;DHT22;8350;52.316;10.530;2023-02-18T03:10:33;7.40;1.00
16479;DHT22;8350;52.316;10.530;2023-02-18T03:13:08;7.40;1.00
16479;DHT22;8350;52.316;10.530;2023-02-18T03:15:41;7.40;1.00
16479;DHT22;8350;52.316;10.530;2023-02-18T03:18:15;7.40;1.00
16479;DHT22;8350;52.316;10.530;2023-02-18T03:20:49;7.40;1.00
16479;DHT22;8350;52.316;10.530;2023-02-18T03:23:22;7.40;1.00
16479;DHT22;8350;52.316;10.530;2023-02-18T03:25:51;7.40;1.00
16479;DHT22;8350;52.316;10.530;2023-02-18T03:28:20;7.40;1.00
16479;DHT22;8350;52.316;10.530;2023-02-18T03:30:52;7.50;1.00
16479;DHT22;8350;52.316;10.530;2023-02-18T03:33:25;7.50;1.00
16479;DHT22;8350;52.316;10.530;2023-02-18T03:35:53;7.50;1.00
16479;DHT22;8350;52.316;10.530;2023-02-18T03:38:24;7.40;1.00
16479;DHT22;8350;52.316;10.530;2023-02-18T03:40:54;7.40;1.00
16479;DHT22;8350;52.316;10.530;2023-02-18T03:43:22;7.40;1.00
16479;DHT22;8350;52.316;10.530;2023-02-18T03:45:49;7.40;1.00
16479;DHT22;8350;52.316;10.530;2023-02-18T03:48:16;7.40;1.00
16479;DHT22;8350;52.316;10.530;2023-02-18T03:50:43;7.50;1.00
16479;DHT22;8350;52.316;10.530;2023-02-18T03:53:10;7.50;1.00
16479;DHT22;8350;52.316;10.530;2023-02-18T03:55:38;7.40;1.00
16479;DHT22;8350;52.316;10.530;2023-02-18T03:58:05;7.40;1.00
16479;DHT22;8350;52.316;10.530;2023-02-18T04:00:32;7.50;1.00
16479;DHT22;8350;52.316;10.530;2023-02-18T04:02:58;7.50;1.00
16479;DHT22;8350;52.316;10.530;2023-02-18T04:05:25;7.50;1.00
16479;DHT22;8350;52.316;10.530;2023-02-18T04:07:52;7.50;1.00
16479;DHT22;8350;52.316;10.530;2023-02-18T04:10:19;7.50;1.00
16479;DHT22;8350;52.316;10.530;2023-02-18T04:12:48;7.50;1.00
16479;DHT22;8350;52.316;10.530;2023-02-18T04:15:15;7.60;1.00
16479;DHT22;8350;52.316;10.530;2023-02-18T04:17:42;7.60;1.00
16479;DHT22;8350;52.316;10.530;2023-02-18T04:20:10;7.60;1.00
16479;DHT22;8350;52.316;10.530;2023-02-18T04:22:37;7.70;1.00
16479;DHT22;8350;52.316;10.530;2023-02-18T04:25:04;7.70;1.00
16479;DHT22;8350;52.316;10.530;2023-02-18T04:27:31;7.70;1.00
16479;DHT22;8350;52.316;10.530;2023-02-18T04:29:59;7.70;1.00
16479;DHT22;8350;52.316;10.530;2023-02-18T04:32:26;7.70;1.00
16479;DHT22;8350;52.316;10.530;2023-02-18T04:34:53;7.70;1.00
16479;DHT22;8350;52.316;10.530;2023-02-18T04:37:19;7.70;1.00
16479;DHT22;8350;52.316;10.530;2023-02-18T04:39:46;7.80;1.00
16479;DHT22;8350;52.316;10.530;2023-02-18T04:42:13;7.70;1.00
16479;DHT22;8350;52.316;10.530;2023-02-18T04:44:40;7.70;1.00
16479;DHT22;8350;52.316;10.530;2023-02-18T04:47:09;7.70;1.00
16479;DHT22;8350;52.316;10.530;2023-02-18T04:49:35;7.70;1.00
16479;DHT22;8350;52.316;10.530;2023-02-18T04:52:03;7.70;1.00
16479;DHT22;8350;52.316;10.530;2023-02-18T04:54:30;7.70;1.00
16479;DHT22;8350;52.316;10.530;2023-02-18T04:56:56;7.70;1.00
16479;DHT22;8350;52.316;10.530;2023-02-18T04:59:23;7.70;1.00
16479;DHT22;8350;52.316;10.530;2023-02-18T05:01:50;7.60;1.00
16479;DHT22;8350;52.316;10.530;2023-02-18T05:04:19;7.60;1.00
16479;DHT22;8350;52.316;10.530;2023-02-18T05:06:46;7.60;1.00
16479;DHT22;8350;52.316;10.530;2023-02-18T05:09:13;7.60;1.00
16479;DHT22;8350;52.316;10.530;2023-02-18T05:11:40;7.50;1.00
16479;DHT22;8350;52.316;10.530;2023-02-18T05:14:07;7.50;19.90
16479;DHT22;8350;52.316;10.530;2023-02-18T05:16:34;7.40;48.70
16479;DHT22;8350;52.316;10.530;2023-02-18T05:19:05;7.40;81.60
16479;DHT22;8350;52.316;10.530;2023-02-18T05:21:33;7.40;97.30
16479;DHT22;8350;52.316;10.530;2023-02-18T05:24:00;7.30;99.90
16479;DHT22;8350;52.316;10.530;2023-02-18T05:26:27;7.30;99.90
16479;DHT22;8350;52.316;10.530;2023-02-18T05:28:57;7.20;99.90
16479;DHT22;8350;52.316;10.530;2023-02-18T05:31:23;7.20;99.90
16479;DHT22;8350;52.316;10.530;2023-02-18T05:33:50;7.20;99.90
16479;DHT22;8350;52.316;10.530;2023-02-18T05:36:17;7.20;99.90
16479;DHT22;8350;52.316;10.530;2023-02-18T05:38:45;7.10;99.90
16479;DHT22;8350;52.316;10.530;2023-02-18T05:41:12;7.10;99.90
16479;DHT22;8350;52.316;10.530;2023-02-18T05:43:39;7.00;99.90
16479;DHT22;8350;52.316;10.530;2023-02-18T05:46:19;7.00;99.90
16479;DHT22;8350;52.316;10.530;2023-02-18T05:48:46;7.00;99.90
16479;DHT22;8350;52.316;10.530;2023-02-18T05:51:13;6.90;99.90
16479;DHT22;8350;52.316;10.530;2023-02-18T05:53:40;7.00;99.90
16479;DHT22;8350;52.316;10.530;2023-02-18T05:56:09;7.00;99.90
16479;DHT22;8350;52.316;10.530;2023-02-18T05:58:37;7.00;99.90
16479;DHT22;8350;52.316;10.530;2023-02-18T06:01:04;7.00;99.90
16479;DHT22;8350;52.316;10.530;2023-02-18T06:03:31;6.90;99.90
16479;DHT22;8350;52.316;10.530;2023-02-18T06:05:58;6.90;99.90
16479;DHT22;8350;52.316;10.530;2023-02-18T06:08:25;6.90;99.90
16479;DHT22;8350;52.316;10.530;2023-02-18T06:10:53;6.90;99.90
16479;DHT22;8350;52.316;10.530;2023-02-18T06:13:21;6.90;99.90
16479;DHT22;8350;52.316;10.530;2023-02-18T06:15:49;6.90;99.90
16479;DHT22;8350;52.316;10.530;2023-02-18T06:18:16;6.80;99.90
16479;DHT22;8350;52.316;10.530;2023-02-18T06:20:45;6.80;99.90
16479;DHT22;8350;52.316;10.530;2023-02-18T06:23:12;6.80;99.90
16479;DHT22;8350;52.316;10.530;2023-02-18T06:25:38;6.80;99.90
16479;DHT22;8350;52.316;10.530;2023-02-18T06:28:05;6.80;99.90
16479;DHT22;8350;52.316;10.530;2023-02-18T06:30:34;6.70;99.90
16479;DHT22;8350;52.316;10.530;2023-02-18T06:33:01;6.70;99.90
16479;DHT22;8350;52.316;10.530;2023-02-18T06:35:31;6.70;99.90
16479;DHT22;8350;52.316;10.530;2023-02-18T06:37:59;6.80;99.90
16479;DHT22;8350;52.316;10.530;2023-02-18T06:40:30;6.80;99.90
16479;DHT22;8350;52.316;10.530;2023-02-18T06:42:56;6.80;99.90
16479;DHT22;8350;52.316;10.530;2023-02-18T06:45:23;6.80;99.90
16479;DHT22;8350;52.316;10.530;2023-02-18T06:47:51;6.80;99.90
16479;DHT22;8350;52.316;10.530;2023-02-18T06:50:18;6.80;99.90
16479;DHT22;8350;52.316;10.530;2023-02-18T06:52:45;6.80;99.90
16479;DHT22;8350;52.316;10.530;2023-02-18T06:55:12;6.80;99.90
16479;DHT22;8350;52.316;10.530;2023-02-18T06:57:39;6.80;99.90
16479;DHT22;8350;52.316;10.530;2023-02-18T07:00:07;6.90;99.90
16479;DHT22;8350;52.316;10.530;2023-02-18T07:02:34;6.90;99.90
16479;DHT22;8350;52.316;10.530;2023-02-18T07:05:03;6.90;99.90
16479;DHT22;8350;52.316;10.530;2023-02-18T07:10:11;6.90;99.90
16479;DHT22;8350;52.316;10.530;2023-02-18T07:12:38;6.90;99.90
16479;DHT22;8350;52.316;10.530;2023-02-18T07:15:05;6.90;99.90
16479;DHT22;8350;52.316;10.530;2023-02-18T07:17:32;6.90;99.90
16479;DHT22;8350;52.316;10.530;2023-02-18T07:19:59;6.90;99.90
16479;DHT22;8350;52.316;10.530;2023-02-18T07:22:27;6.90;99.90
16479;DHT22;8350;52.316;10.530;2023-02-18T07:24:54;7.00;99.90
16479;DHT22;8350;52.316;10.530;2023-02-18T07:27:21;7.00;99.90
16479;DHT22;8350;52.316;10.530;2023-02-18T07:29:48;7.00;99.90
16479;DHT22;8350;52.316;10.530;2023-02-18T07:32:16;7.10;99.90
16479;DHT22;8350;52.316;10.530;2023-02-18T07:34:43;7.20;99.90
16479;DHT22;8350;52.316;10.530;2023-02-18T07:37:10;7.30;99.90
16479;DHT22;8350;52.316;10.530;2023-02-18T07:39:41;7.50;99.90
16479;DHT22;8350;52.316;10.530;2023-02-18T07:42:08;7.60;99.90
16479;DHT22;8350;52.316;10.530;2023-02-18T07:44:35;7.70;99.90
16479;DHT22;8350;52.316;10.530;2023-02-18T07:47:04;7.70;99.90
16479;DHT22;8350;52.316;10.530;2023-02-18T07:49:32;7.70;99.90
16479;DHT22;8350;52.316;10.530;2023-02-18T07:51:59;7.70;99.90
16479;DHT22;8350;52.316;10.530;2023-02-18T07:54:26;7.80;99.90
16479;DHT22;8350;52.316;10.530;2023-02-18T07:56:54;7.90;99.90
16479;DHT22;8350;52.316;10.530;2023-02-18T07:59:21;8.00;99.90
16479;DHT22;8350;52.316;10.530;2023-02-18T08:04:19;8.00;99.90
16479;DHT22;8350;52.316;10.530;2023-02-18T08:06:47;8.00;99.90
16479;DHT22;8350;52.316;10.530;2023-02-18T08:09:15;7.90;99.90
16479;DHT22;8350;52.316;10.530;2023-02-18T08:11:42;8.00;99.90
16479;DHT22;8350;52.316;10.530;2023-02-18T08:14:10;8.00;99.90
16479;DHT22;8350;52.316;10.530;2023-02-18T08:16:37;8.00;99.90
16479;DHT22;8350;52.316;10.530;2023-02-18T08:19:04;7.90;99.90
16479;DHT22;8350;52.316;10.530;2023-02-18T08:21:32;7.90;99.90
16479;DHT22;8350;52.316;10.530;2023-02-18T08:23:59;8.00;99.90
16479;DHT22;8350;52.316;10.530;2023-02-18T08:26:28;8.00;99.90
16479;DHT22;8350;52.316;10.530;2023-02-18T08:28:55;8.00;99.90
16479;DHT22;8350;52.316;10.530;2023-02-18T08:31:26;8.10;99.90
16479;DHT22;8350;52.316;10.530;2023-02-18T08:33:54;8.00;99.90
16479;DHT22;8350;52.316;10.530;2023-02-18T08:36:23;8.10;99.90
16479;DHT22;8350;52.316;10.530;2023-02-18T08:38:50;8.10;99.90
16479;DHT22;8350;52.316;10.530;2023-02-18T08:41:17;8.10;99.90
16479;DHT22;8350;52.316;10.530;2023-02-18T08:43:45;8.10;99.90
16479;DHT22;8350;52.316;10.530;2023-02-18T08:46:12;8.20;99.90
16479;DHT22;8350;52.316;10.530;2023-02-18T08:48:41;8.20;99.90
16479;DHT22;8350;52.316;10.530;2023-02-18T08:51:13;8.30;99.90
16479;DHT22;8350;52.316;10.530;2023-02-18T08:53:40;8.30;99.90
16479;DHT22;8350;52.316;10.530;2023-02-18T08:56:08;8.40;99.90
16479;DHT22;8350;52.316;10.530;2023-02-18T08:58:35;8.50;99.90
16479;DHT22;8350;52.316;10.530;2023-02-18T09:01:03;8.50;99.90
16479;DHT22;8350;52.316;10.530;2023-02-18T09:03:30;8.60;99.90
16479;DHT22;8350;52.316;10.530;2023-02-18T09:05:58;8.70;99.90
16479;DHT22;8350;52.316;10.530;2023-02-18T09:08:25;8.80;99.90
16479;DHT22;8350;52.316;10.530;2023-02-18T09:10:54;8.80;99.90
16479;DHT22;8350;52.316;10.530;2023-02-18T09:13:22;8.90;99.90
16479;DHT22;8350;52.316;10.530;2023-02-18T09:15:55;9.10;99.90
16479;DHT22;8350;52.316;10.530;2023-02-18T09:18:22;9.10;99.90
16479;DHT22;8350;52.316;10.530;2023-02-18T09:20:49;9.20;99.90
16479;DHT22;8350;52.316;10.530;2023-02-18T09:23:17;9.30;99.90
16479;DHT22;8350;52.316;10.530;2023-02-18T09:25:45;9.40;99.90
16479;DHT22;8350;52.316;10.530;2023-02-18T09:28:12;9.50;99.90
16479;DHT22;8350;52.316;10.530;2023-02-18T09:30:39;9.60;99.90
16479;DHT22;8350;52.316;10.530;2023-02-18T09:33:06;9.70;99.90
16479;DHT22;8350;52.316;10.530;2023-02-18T09:35:33;9.70;99.90
16479;DHT22;8350;52.316;10.530;2023-02-18T09:38:03;9.80;99.90
16479;DHT22;8350;52.316;10.530;2023-02-18T09:40:33;10.00;99.90
16479;DHT22;8350;52.316;10.530;2023-02-18T09:43:01;10.00;99.90
16479;DHT22;8350;52.316;10.530;2023-02-18T09:45:29;10.00;99.90
16479;DHT22;8350;52.316;10.530;2023-02-18T09:47:56;10.10;99.90
16479;DHT22;8350;52.316;10.530;2023-02-18T09:50:27;10.10;99.90
16479;DHT22;8350;52.316;10.530;2023-02-18T09:52:57;10.20;99.90
16479;DHT22;8350;52.316;10.530;2023-02-18T09:55:27;10.30;99.90
16479;DHT22;8350;52.316;10.530;2023-02-18T09:57:59;10.30;99.90
16479;DHT22;8350;52.316;10.530;2023-02-18T10:00:31;10.40;99.90
16479;DHT22;8350;52.316;10.530;2023-02-18T10:03:01;10.40;99.90
16479;DHT22;8350;52.316;10.530;2023-02-18T10:05:30;10.50;99.90
16479;DHT22;8350;52.316;10.530;2023-02-18T10:08:01;10.50;99.90
16479;DHT22;8350;52.316;10.530;2023-02-18T10:10:35;10.60;99.90
16479;DHT22;8350;52.316;10.530;2023-02-18T10:13:12;10.60;99.90
16479;DHT22;8350;52.316;10.530;2023-02-18T10:15:42;10.60;99.90
16479;DHT22;8350;52.316;10.530;2023-02-18T10:18:21;10.60;99.90
16479;DHT22;8350;52.316;10.530;2023-02-18T10:20:51;10.60;99.90
16479;DHT22;8350;52.316;10.530;2023-02-18T10:23:19;10.60;99.90
16479;DHT22;8350;52.316;10.530;2023-02-18T10:25:48;10.60;99.90
16479;DHT22;8350;52.316;10.530;2023-02-18T10:28:18;10.60;99.90
16479;DHT22;8350;52.316;10.530;2023-02-18T10:30:53;10.60;99.90
16479;DHT22;8350;52.316;10.530;2023-02-18T10:33:34;10.60;99.90
16479;DHT22;8350;52.316;10.530;2023-02-18T10:36:22;10.60;99.90
16479;DHT22;8350;52.316;10.530;2023-02-18T10:39:05;10.70;99.90
16479;DHT22;8350;52.316;10.530;2023-02-18T10:41:39;10.70;99.90
16479;DHT22;8350;52.316;10.530;2023-02-18T10:44:15;10.70;99.90
16479;DHT22;8350;52.316;10.530;2023-02-18T10:46:50;10.70;99.90
16479;DHT22;8350;52.316;10.530;2023-02-18T10:49:32;10.70;99.90
16479;DHT22;8350;52.316;10.530;2023-02-18T10:52:03;10.70;99.90
16479;DHT22;8350;52.316;10.530;2023-02-18T10:54:50;10.80;99.90
16479;DHT22;8350;52.316;10.530;2023-02-18T10:57:18;10.80;99.90
16479;DHT22;8350;52.316;10.530;2023-02-18T10:59:54;10.80;99.90
16479;DHT22;8350;52.316;10.530;2023-02-18T11:02:24;10.80;99.90
16479;DHT22;8350;52.316;10.530;2023-02-18T11:04:54;10.80;99.90
16479;DHT22;8350;52.316;10.530;2023-02-18T11:07:28;10.70;99.90
16479;DHT22;8350;52.316;10.530;2023-02-18T11:09:58;10.70;99.90
16479;DHT22;8350;52.316;10.530;2023-02-18T11:12:28;10.60;99.90
16479;DHT22;8350;52.316;10.530;2023-02-18T11:15:17;10.70;99.90
16479;DHT22;8350;52.316;10.530;2023-02-18T11:17:46;10.70;99.90
16479;DHT22;8350;52.316;10.530;2023-02-18T11:20:26;10.60;99.90
16479;DHT22;8350;52.316;10.530;2023-02-18T11:22:57;10.60;99.90
16479;DHT22;8350;52.316;10.530;2023-02-18T11:25:26;10.60;99.90
16479;DHT22;8350;52.316;10.530;2023-02-18T11:27:59;10.60;99.90
16479;DHT22;8350;52.316;10.530;2023-02-18T11:30:37;10.60;99.90
16479;DHT22;8350;52.316;10.530;2023-02-18T11:33:07;10.60;99.90
16479;DHT22;8350;52.316;10.530;2023-02-18T11:35:35;10.70;99.90
16479;DHT22;8350;52.316;10.530;2023-02-18T11:38:22;10.60;99.90
16479;DHT22;8350;52.316;10.530;2023-02-18T11:40:54;10.60;99.90
16479;DHT22;8350;52.316;10.530;2023-02-18T11:43:24;10.60;99.90
16479;DHT22;8350;52.316;10.530;2023-02-18T11:49:11;10.50;99.90
16479;DHT22;8350;52.316;10.530;2023-02-18T11:51:47;10.50;99.90
16479;DHT22;8350;52.316;10.530;2023-02-18T11:54:23;10.60;99.90
16479;DHT22;8350;52.316;10.530;2023-02-18T11:56:55;10.60;99.90
16479;DHT22;8350;52.316;10.530;2023-02-18T11:59:23;10.50;99.90
16479;DHT22;8350;52.316;10.530;2023-02-18T12:01:54;10.50;99.90
16479;DHT22;8350;52.316;10.530;2023-02-18T12:04:28;10.50;99.90
16479;DHT22;8350;52.316;10.530;2023-02-18T12:07:05;10.50;99.90
16479;DHT22;8350;52.316;10.530;2023-02-18T12:09:38;10.40;99.90
16479;DHT22;8350;52.316;10.530;2023-02-18T12:12:15;10.40;99.90
16479;DHT22;8350;52.316;10.530;2023-02-18T12:14:46;10.30;99.90
16479;DHT22;8350;52.316;10.530;2023-02-18T12:20:32;10.20;99.90
16479;DHT22;8350;52.316;10.530;2023-02-18T12:23:07;10.20;99.90
16479;DHT22;8350;52.316;10.530;2023-02-18T12:25:43;10.10;99.90
16479;DHT22;8350;52.316;10.530;2023-02-18T12:28:25;10.10;99.90
16479;DHT22;8350;52.316;10.530;2023-02-18T12:31:26;10.10;99.90
16479;DHT22;8350;52.316;10.530;2023-02-18T12:34:11;10.00;99.90
16479;DHT22;8350;52.316;10.530;2023-02-18T12:36:51;10.00;99.90
16479;DHT22;8350;52.316;10.530;2023-02-18T12:39:29;10.10;99.90
16479;DHT22;8350;52.316;10.530;2023-02-18T12:42:12;10.10;99.90
16479;DHT22;8350;52.316;10.530;2023-02-18T12:44:47;10.00;99.90
16479;DHT22;8350;52.316;10.530;2023-02-18T12:47:30;10.00;99.90
16479;DHT22;8350;52.316;10.530;2023-02-18T12:50:22;10.10;99.90
16479;DHT22;8350;52.316;10.530;2023-02-18T12:53:05;10.10;99.90
16479;DHT22;8350;52.316;10.530;2023-02-18T12:55:46;10.10;99.90
16479;DHT22;8350;52.316;10.530;2023-02-18T12:58:29;10.00;99.90
16479;DHT22;8350;52.316;10.530;2023-02-18T13:01:12;10.00;99.90
16479;DHT22;8350;52.316;10.530;2023-02-18T13:04:09;10.00;99.90
16479;DHT22;8350;52.316;10.530;2023-02-18T13:09:58;10.00;99.90
16479;DHT22;8350;52.316;10.530;2023-02-18T13:12:32;10.00;99.90
16479;DHT22;8350;52.316;10.530;2023-02-18T13:15:04;10.00;99.90
16479;DHT22;8350;52.316;10.530;2023-02-18T13:17:38;9.90;99.90
16479;DHT22;8350;52.316;10.530;2023-02-18T13:20:13;9.90;99.90
16479;DHT22;8350;52.316;10.530;2023-02-18T13:22:43;9.90;99.90
16479;DHT22;8350;52.316;10.530;2023-02-18T13:25:13;9.90;99.90
16479;DHT22;8350;52.316;10.530;2023-02-18T13:27:44;10.00;99.90
16479;DHT22;8350;52.316;10.530;2023-02-18T13:30:32;10.00;99.90
16479;DHT22;8350;52.316;10.530;2023-02-18T13:33:07;10.00;99.90
16479;DHT22;8350;52.316;10.530;2023-02-18T13:35:39;10.00;99.90
16479;DHT22;8350;52.316;10.530;2023-02-18T13:41:10;10.10;99.90
16479;DHT22;8350;52.316;10.530;2023-02-18T13:43:40;10.10;99.90
16479;DHT22;8350;52.316;10.530;2023-02-18T13:46:10;10.10;99.90
16479;DHT22;8350;52.316;10.530;2023-02-18T13:48:43;10.10;99.90
16479;DHT22;8350;52.316;10.530;2023-02-18T13:51:15;10.10;99.90
16479;DHT22;8350;52.316;10.530;2023-02-18T13:53:48;10.20;99.90
16479;DHT22;8350;52.316;10.530;2023-02-18T13:56:32;10.20;99.90
16479;DHT22;8350;52.316;10.530;2023-02-18T13:59:06;10.20;99.90
16479;DHT22;8350;52.316;10.530;2023-02-18T14:01:44;10.20;99.90
16479;DHT22;8350;52.316;10.530;2023-02-18T14:04:47;10.20;99.90
16479;DHT22;8350;52.316;10.530;2023-02-18T14:07:36;10.30;99.90
16479;DHT22;8350;52.316;10.530;2023-02-18T14:10:09;10.20;99.90
16479;DHT22;8350;52.316;10.530;2023-02-18T14:15:51;10.30;99.90
16479;DHT22;8350;52.316;10.530;2023-02-18T14:18:24;10.30;99.90
16479;DHT22;8350;52.316;10.530;2023-02-18T14:20:51;10.40;99.90
16479;DHT22;8350;52.316;10.530;2023-02-18T14:23:41;10.40;99.90
16479;DHT22;8350;52.316;10.530;2023-02-18T14:26:17;10.40;99.90
16479;DHT22;8350;52.316;10.530;2023-02-18T14:28:52;10.40;99.90
16479;DHT22;8350;52.316;10.530;2023-02-18T14:31:32;10.50;99.90
16479;DHT22;8350;52.316;10.530;2023-02-18T14:37:06;10.40;99.90
16479;DHT22;8350;52.316;10.530;2023-02-18T14:39:45;10.30;99.90
16479;DHT22;8350;52.316;10.530;2023-02-18T14:42:25;10.30;99.90
16479;DHT22;8350;52.316;10.530;2023-02-18T14:45:05;10.30;99.90
16479;DHT22;8350;52.316;10.530;2023-02-18T14:47:46;10.40;99.90
16479;DHT22;8350;52.316;10.530;2023-02-18T14:50:19;10.40;99.90
16479;DHT22;8350;52.316;10.530;2023-02-18T14:52:49;10.40;99.90
16479;DHT22;8350;52.316;10.530;2023-02-18T14:55:20;10.40;99.90
16479;DHT22;8350;52.316;10.530;2023-02-18T14:57:50;10.40;99.90
16479;DHT22;8350;52.316;10.530;2023-02-18T15:00:22;10.40;99.90
16479;DHT22;8350;52.316;10.530;2023-02-18T15:02:52;10.40;99.90
16479;DHT22;8350;52.316;10.530;2023-02-18T15:05:21;10.40;99.90
16479;DHT22;8350;52.316;10.530;2023-02-18T15:07:56;10.30;99.90
16479;DHT22;8350;52.316;10.530;2023-02-18T15:10:29;10.30;99.90
16479;DHT22;8350;52.316;10.530;2023-02-18T15:13:01;10.30;99.90
16479;DHT22;8350;52.316;10.530;2023-02-18T15:18:28;10.20;99.90
16479;DHT22;8350;52.316;10.530;2023-02-18T15:20:56;10.20;99.90
16479;DHT22;8350;52.316;10.530;2023-02-18T15:23:23;10.20;99.90
16479;DHT22;8350;52.316;10.530;2023-02-18T15:25:52;10.20;99.90
16479;DHT22;8350;52.316;10.530;2023-02-18T15:28:25;10.20;99.90
16479;DHT22;8350;52.316;10.530;2023-02-18T15:30:55;10.20;99.90
16479;DHT22;8350;52.316;10.530;2023-02-18T15:33:22;10.20;99.90
16479;DHT22;8350;52.316;10.530;2023-02-18T15:35:49;10.20;99.90
16479;DHT22;8350;52.316;10.530;2023-02-18T15:38:18;10.20;99.90
16479;DHT22;8350;52.316;10.530;2023-02-18T15:40:47;10.30;99.90
16479;DHT22;8350;52.316;10.530;2023-02-18T15:43:18;10.30;99.90
16479;DHT22;8350;52.316;10.530;2023-02-18T15:45:46;10.40;99.90
16479;DHT22;8350;52.316;10.530;2023-02-18T15:48:24;10.40;99.90
16479;DHT22;8350;52.316;10.530;2023-02-18T15:50:55;10.40;99.90
16479;DHT22;8350;52.316;10.530;2023-02-18T15:53:22;10.40;99.90
16479;DHT22;8350;52.316;10.530;2023-02-18T15:55:52;10.40;99.90
16479;DHT22;8350;52.316;10.530;2023-02-18T15:58:23;10.40;99.90
16479;DHT22;8350;52.316;10.530;2023-02-18T16:00:55;10.40;99.90
16479;DHT22;8350;52.316;10.530;2023-02-18T16:03:26;10.40;99.90
16479;DHT22;8350;52.316;10.530;2023-02-18T16:06:09;10.40;99.90
16479;DHT22;8350;52.316;10.530;2023-02-18T16:08:37;10.40;99.90
16479;DHT22;8350;52.316;10.530;2023-02-18T16:11:08;10.40;99.90
16479;DHT22;8350;52.316;10.530;2023-02-18T16:13:43;10.30;99.90
16479;DHT22;8350;52.316;10.530;2023-02-18T16:16:22;10.30;99.90
16479;DHT22;8350;52.316;10.530;2023-02-18T16:18:52;10.30;99.90
16479;DHT22;8350;52.316;10.530;2023-02-18T16:21:24;10.30;99.90
16479;DHT22;8350;52.316;10.530;2023-02-18T16:23:54;10.20;99.90
16479;DHT22;8350;52.316;10.530;2023-02-18T16:26:27;10.20;99.90
16479;DHT22;8350;52.316;10.530;2023-02-18T16:29:01;10.20;99.90
16479;DHT22;8350;52.316;10.530;2023-02-18T16:31:28;10.20;99.90
16479;DHT22;8350;52.316;10.530;2023-02-18T16:33:56;10.30;99.90
16479;DHT22;8350;52.316;10.530;2023-02-18T16:36:24;10.30;99.90
16479;DHT22;8350;52.316;10.530;2023-02-18T16:38:51;10.30;99.90
16479;DHT22;8350;52.316;10.530;2023-02-18T16:41:18;10.30;99.90